Flight Track Log - Related Links

Times and Time Zones

All times are in EDT time to prevent confusion due to time zone crossing. See the DAL1562 flight status page for this flight to view local times or setup timezone preferences in your user account.

Time Position Orientation Groundspeed Altitude Reporting Facility
EDT Latitude Longitude Course Direction KTS MPH feet Rate Location/Type
Fri 05:44:46 PM 33.6500 -84.3500 11° North 201 231 2,600  Level Atlanta TRACON
Fri 05:45:40 PM 33.6667 -84.2833 73° East 265 305 4,000 2,211 Climbing Atlanta TRACON
Fri 05:46:40 PM 33.6833 -84.2000 76° East 289 333 6,800 2,700 Climbing Atlanta TRACON
Fri 05:47:00 PM 33.9474 -84.2667 North  Level FlightAware Approximate
Fri 05:47:40 PM 33.7667 -84.1833 North 286 329 9,400  Level Atlanta TRACON
Fri 05:48:00 PM 34.0744 -84.2667 North  Level FlightAware Approximate
Fri 05:49:00 PM 34.2014 -84.2667 North  Level FlightAware Approximate
Fri 05:49:57 PM 33.9444 -84.2692 338° Northwest 312 359 11,500  Level Atlanta Center
Fri 05:50:00 PM 34.3276 -84.2561 11° North  Level FlightAware Approximate
Fri 05:50:57 PM 34.0508 -84.2769 357° North 356 410 13,700  Level Atlanta Center
Fri 05:51:57 PM 34.1633 -84.2797 359° North 388 447 15,700 2,150 Climbing Atlanta Center
Fri 05:52:57 PM 34.2803 -84.2825 359° North 407 468 18,000 1,750 Climbing Atlanta Center
Fri 05:53:57 PM 34.3825 -84.2603 10° North 407 468 19,200 1,550 Climbing Atlanta Center
Fri 05:54:57 PM 34.5036 -84.2328 11° North 426 490 21,100 1,650 Climbing Atlanta Center
Fri 05:55:57 PM 34.6206 -84.2028 12° North 436 502 22,500 1,400 Climbing Atlanta Center
Fri 05:56:57 PM 34.7522 -84.1728 11° North 436 502 23,900 1,350 Climbing Atlanta Center
Fri 05:57:57 PM 34.8733 -84.1197 20° North 436 502 25,200 1,300 Climbing Atlanta Center
Fri 05:58:57 PM 34.9797 -84.0361 33° Northeast 442 509 26,500 1,450 Climbing Atlanta Center
Fri 05:59:57 PM 35.0736 -83.9322 42° Northeast 453 521 28,100 1,300 Climbing Atlanta Center
Fri 06:00:57 PM 35.1611 -83.8153 48° Northeast 448 516 29,100 1,100 Climbing Atlanta Center
Fri 06:01:57 PM 35.2525 -83.7081 44° Northeast 448 516 30,300 1,100 Climbing Atlanta Center
Fri 06:02:57 PM 35.3567 -83.6186 35° Northeast 448 516 31,300 850 Climbing Atlanta Center
Fri 06:03:57 PM 35.4733 -83.5797 15° North 432 497 32,000 750 Climbing Atlanta Center
Fri 06:04:57 PM 35.5964 -83.5611 North 432 497 32,800 500 Climbing Atlanta Center
Fri 06:05:57 PM 35.7194 -83.5478 North 432 497 33,000 100 Climbing Atlanta Center
Fri 06:06:57 PM 35.8425 -83.5342 North 438 504 33,000  Level Atlanta Center
Fri 06:07:57 PM 35.9675 -83.5206 North 444 511 33,000  Level Atlanta Center
Fri 06:08:57 PM 36.0883 -83.5069 North 444 511 33,000  Level Atlanta Center
Fri 06:09:51 PM 36.1889 -83.4903 North 453 521 33,000  Level Indianapolis Center
Fri 06:10:53 PM 36.3325 -83.4706 North 445 512 33,000  Level Indianapolis Center
Fri 06:11:55 PM 36.4578 -83.4547 North 447 514 33,000  Level Indianapolis Center
Fri 06:12:57 PM 36.5861 -83.4367 North 458 527 33,000  Level Indianapolis Center
Fri 06:13:59 PM 36.7061 -83.3856 19° North 467 537 33,000  Level Indianapolis Center
Fri 06:15:01 PM 36.8197 -83.3103 28° Northeast 460 529 33,000  Level Indianapolis Center
Fri 06:16:03 PM 36.9347 -83.2381 27° Northeast 460 529 33,000  Level Indianapolis Center
Fri 06:17:05 PM 37.0500 -83.1636 27° Northeast 460 529 33,000  Level Indianapolis Center
Fri 06:18:08 PM 37.1658 -83.0883 27° Northeast 463 533 33,000  Level Indianapolis Center
Fri 06:19:10 PM 37.3000 -83.0008 27° Northeast 461 531 33,000  Level Indianapolis Center
Fri 06:20:12 PM 37.4150 -82.9256 27° Northeast 464 534 33,000  Level Indianapolis Center
Fri 06:21:14 PM 37.5292 -82.8511 27° Northeast 462 532 33,000  Level Indianapolis Center
Fri 06:22:16 PM 37.6439 -82.7733 28° Northeast 465 535 33,000  Level Indianapolis Center
Fri 06:23:18 PM 37.7569 -82.6981 28° Northeast 460 529 33,000  Level Indianapolis Center
Fri 06:24:20 PM 37.8894 -82.6092 28° Northeast 460 529 33,000  Level Indianapolis Center
Fri 06:25:22 PM 38.0042 -82.5331 28° Northeast 462 532 33,000  Level Indianapolis Center
Fri 06:26:24 PM 38.1125 -82.4603 28° Northeast 460 529 33,000  Level Indianapolis Center
Fri 06:27:26 PM 38.2256 -82.3825 28° Northeast 460 529 33,000  Level Indianapolis Center
Fri 06:28:28 PM 38.3411 -82.3089 27° Northeast 462 532 33,000  Level Indianapolis Center
Fri 06:29:30 PM 38.4556 -82.2319 28° Northeast 462 532 33,000  Level Indianapolis Center
Fri 06:30:32 PM 38.5919 -82.1400 28° Northeast 459 528 33,000  Level Indianapolis Center
Fri 06:31:34 PM 38.7047 -82.0617 28° Northeast 459 528 33,000  Level Indianapolis Center
Fri 06:32:36 PM 38.8133 -81.9728 33° Northeast 460 529 33,000  Level Indianapolis Center
Fri 06:33:38 PM 38.9172 -81.8744 36° Northeast 458 527 33,000  Level Indianapolis Center
Fri 06:34:40 PM 39.0219 -81.7733 37° Northeast 464 534 33,000  Level Indianapolis Center
Fri 06:35:42 PM 39.1269 -81.6742 36° Northeast 464 534 33,000  Level Indianapolis Center
Fri 06:36:44 PM 39.2317 -81.5736 37° Northeast 468 539 33,000  Level Indianapolis Center
Fri 06:37:46 PM 39.3356 -81.4744 36° Northeast 463 533 33,000  Level Indianapolis Center
Fri 06:38:48 PM 39.4606 -81.3547 36° Northeast 464 534 33,000  Level Indianapolis Center
Fri 06:39:50 PM 39.5689 -81.2642 33° Northeast 464 534 33,000  Level Indianapolis Center
Fri 06:40:52 PM 39.6847 -81.1917 26° Northeast 461 531 33,000  Level Indianapolis Center
Fri 06:41:54 PM 39.7989 -81.1178 26° Northeast 458 527 33,000  Level Indianapolis Center
Fri 06:42:57 PM 39.9131 -81.0417 27° Northeast 459 528 33,000  Level Indianapolis Center
Fri 06:43:59 PM 40.0414 -80.9558 27° Northeast 460 529 33,000  Level Indianapolis Center
Fri 06:45:01 PM 40.1561 -80.8781 27° Northeast 460 529 33,000  Level Indianapolis Center
Fri 06:46:06 PM 40.2753 -80.7981 27° Northeast 452 520 33,000  Level Cleveland Center
Fri 06:47:06 PM 40.3903 -80.7247 26° Northeast 452 520 33,000  Level Cleveland Center
Fri 06:48:07 PM 40.5050 -80.6486 27° Northeast 452 520 33,000  Level Cleveland Center
Fri 06:49:06 PM 40.6156 -80.5750 27° Northeast 452 520 33,000  Level Cleveland Center
Fri 06:50:06 PM 40.7322 -80.4956 27° Northeast 455 524 33,000  Level Cleveland Center
Fri 06:51:06 PM 40.8467 -80.4158 28° Northeast 455 524 33,000 -300 Level Cleveland Center
Fri 06:52:06 PM 40.9611 -80.3411 26° Northeast 455 524 32,400 -500 Descending Cleveland Center
Fri 06:53:06 PM 41.0756 -80.2636 27° Northeast 455 524 32,000 -200 Descending Cleveland Center
Fri 06:54:06 PM 41.1922 -80.1831 27° Northeast 455 524 32,000  Level Cleveland Center
Fri 06:55:06 PM 41.3067 -80.1050 27° Northeast 455 524 32,000  Level Cleveland Center
Fri 06:56:06 PM 41.4208 -80.0267 27° Northeast 455 524 32,000  Level Cleveland Center
Fri 06:57:06 PM 41.5433 -79.9422 27° Northeast 449 517 32,000  Level Cleveland Center
Fri 06:58:07 PM 41.6575 -79.8633 27° Northeast 449 517 32,000 -200 Level Cleveland Center
Fri 06:59:06 PM 41.7758 -79.7783 28° Northeast 459 528 31,600 -857 Descending Cleveland Center
Fri 07:00:06 PM 41.8878 -79.7019 27° Northeast 452 520 30,300 -1,700 Descending Cleveland Center
Fri 07:01:06 PM 41.9997 -79.6192 29° Northeast 443 510 28,200 -1,150 Descending Cleveland Center
Fri 07:02:06 PM 42.1136 -79.5419 27° Northeast 448 516 28,000 -900 Descending Cleveland Center
Fri 07:03:06 PM 42.2275 -79.4589 28° Northeast 448 516 26,400 -1,900 Descending Cleveland Center
Fri 07:04:06 PM 42.3414 -79.3781 28° Northeast 454 522 24,200 -2,150 Descending Cleveland Center
Fri 07:05:06 PM 42.4511 -79.3000 28° Northeast 449 517 22,100 -1,950 Descending Cleveland Center
Fri 07:06:06 PM 42.5550 -79.2725 11° North 442 509 20,300 -2,350 Descending Cleveland Center
Fri 07:07:06 PM 42.6633 -79.2844 355° North 410 472 17,400 -2,150 Descending Cleveland Center
Fri 07:08:06 PM 42.7742 -79.2992 354° North 398 458 16,000 -700 Descending Cleveland Center
Fri 07:09:06 PM 42.8806 -79.3083 356° North 398 458 16,000  Level Cleveland Center
Fri 07:09:40 PM 42.9500 -79.2833 15° North 390 449 16,000 -1,277 Level Toronto Center
Fri 07:10:40 PM 43.0500 -79.3167 346° North 390 449 14,000 -2,000 Descending Toronto Center
Fri 07:11:40 PM 43.1500 -79.3167 360° North 380 437 12,000 -1,000 Descending Toronto Center
Fri 07:12:40 PM 43.2500 -79.3333 353° North 360 414 12,000  Level Toronto Center
Fri 07:13:40 PM 43.3333 -79.3500 352° North 300 345 12,000 -500 Level Toronto Center
Fri 07:14:40 PM 43.4000 -79.4000 331° Northwest 280 322 11,000 -1,650 Descending Toronto Center
Fri 07:15:40 PM 43.4667 -79.4500 331° Northwest 270 311 8,700 -1,500 Descending Toronto Center
Fri 07:16:40 PM 43.5333 -79.5000 331° Northwest 270 311 8,000 -900 Descending Toronto Center
Fri 07:17:40 PM 43.6000 -79.5167 350° North 280 322 6,900 -1,300 Descending Toronto Center
Fri 07:18:40 PM 43.6667 -79.4333 42° Northeast 300 345 5,400 -1,200 Descending Toronto Center
Fri 07:19:40 PM 43.7167 -79.3500 50° Northeast 270 311 4,500 -750 Descending Toronto Center
Fri 07:20:40 PM 43.7667 -79.3500 360° North 210 242 3,900 -750 Descending Toronto Center
Fri 07:21:40 PM 43.7667 -79.4333 270° West 180 207 3,000 -600 Descending Toronto Center
Fri 07:22:40 PM 43.7333 -79.4667 216° Southwest 160 184 2,700 -550 Descending Toronto Center
Fri 07:23:40 PM 43.7167 -79.5167 245° Southwest 160 184 1,900 -750 Descending Toronto Center
Fri 07:24:40 PM 43.6833 -79.5333 200° South 140 161 1,200 -700 Descending Toronto Center
Fri 07:25:40 PM 43.6667 -79.5833 245° Southwest 140 161 500 -700 Descending Toronto Center

Login

Don't have an account? Register now (free) for customized features, flight alerts, and more!